Time;durP1;ratioP1;P1;durP2;ratioP2;P2;SDS_P1;SDS_P2;PMS_P1;PMS_P2;Temp;Humidity;BMP_temperature;BMP_pressure;BME280_temperature;BME280_humidity;BME280_pressure;Samples;Min_cycle;Max_cycle;Signal;HPM_P1;HPM_P2
2021/04/20 00:00:11;;;;;;;21.55;14.33;;;12.30;99.90;;;;;;1839665;77;21120;-66
2021/04/20 00:02:39;;;;;;;19.82;14.18;;;12.30;99.90;;;;;;1833756;77;21249;-67
2021/04/20 00:05:09;;;;;;;22.55;14.07;;;12.20;99.90;;;;;;1837253;77;21128;-66
2021/04/20 00:07:37;;;;;;;22.93;13.93;;;12.20;99.90;;;;;;1838599;77;21104;-67
2021/04/20 00:10:09;;;;;;;22.10;14.78;;;12.10;99.90;;;;;;1839002;77;21194;-67
2021/04/20 00:12:37;;;;;;;20.17;14.38;;;12.00;99.90;;;;;;1841588;77;21105;-66
2021/04/20 00:15:16;;;;;;;23.98;15.15;;;12.00;99.90;;;;;;1840450;77;21163;-66
2021/04/20 00:17:44;;;;;;;21.80;14.98;;;11.90;99.90;;;;;;1827102;76;21584;-67
2021/04/20 00:20:13;;;;;;;26.27;15.10;;;11.90;99.90;;;;;;1835023;77;21175;-67
2021/04/20 00:22:41;;;;;;;19.60;14.43;;;11.80;99.90;;;;;;1837044;77;21186;-67
2021/04/20 00:25:09;;;;;;;19.98;14.53;;;11.90;99.90;;;;;;1839236;77;21738;-67
2021/04/20 00:27:37;;;;;;;19.62;14.55;;;11.90;99.90;;;;;;1843248;77;21100;-67
2021/04/20 00:30:06;;;;;;;18.85;14.03;;;11.80;99.90;;;;;;1832544;77;21076;-68
2021/04/20 00:32:35;;;;;;;21.68;14.15;;;11.80;99.90;;;;;;1842484;75;21130;-68
2021/04/20 00:35:03;;;;;;;19.30;14.20;;;11.70;99.90;;;;;;1839934;77;21073;-68
2021/04/20 00:37:31;;;;;;;24.15;14.93;;;11.70;99.90;;;;;;1844557;77;21123;-68
2021/04/20 00:39:59;;;;;;;19.25;14.65;;;11.70;99.90;;;;;;1838865;77;21018;-68
2021/04/20 00:42:27;;;;;;;24.23;14.38;;;11.60;99.90;;;;;;1855441;71;21646;-63
2021/04/20 00:44:54;;;;;;;20.70;14.60;;;11.60;99.90;;;;;;1883236;75;21444;-63
2021/04/20 00:47:22;;;;;;;23.15;15.68;;;11.50;99.90;;;;;;1886612;75;21052;-62
2021/04/20 00:49:50;;;;;;;22.07;15.72;;;11.60;99.90;;;;;;1890178;75;21150;-64
2021/04/20 00:52:17;;;;;;;20.23;14.68;;;11.60;99.90;;;;;;1880460;75;21125;-62
2021/04/20 00:54:45;;;;;;;20.48;14.95;;;11.50;99.90;;;;;;1883030;75;21112;-63
2021/04/20 00:57:12;;;;;;;24.60;15.88;;;11.50;99.90;;;;;;1845236;76;21186;-63
2021/04/20 00:59:40;;;;;;;18.82;14.93;;;11.50;99.90;;;;;;1851663;77;21106;-63
2021/04/20 01:02:07;;;;;;;25.60;16.93;;;11.50;99.90;;;;;;1884998;75;21191;-64
2021/04/20 01:04:35;;;;;;;25.25;16.65;;;11.40;99.90;;;;;;1869584;76;21042;-63
2021/04/20 01:07:03;;;;;;;26.97;16.90;;;11.40;99.90;;;;;;1865894;76;21101;-64
2021/04/20 01:09:31;;;;;;;23.07;17.05;;;11.40;99.90;;;;;;1864557;76;21073;-64
2021/04/20 01:11:58;;;;;;;24.25;16.15;;;11.30;99.90;;;;;;1829776;77;21213;-64
2021/04/20 01:14:26;;;;;;;21.25;15.90;;;11.30;99.90;;;;;;1881375;75;21570;-63
2021/04/20 01:16:54;;;;;;;23.67;17.10;;;11.30;99.90;;;;;;1879974;75;21572;-63
2021/04/20 01:19:24;;;;;;;25.80;17.17;;;11.20;99.90;;;;;;1883958;75;21202;-63
2021/04/20 01:21:52;;;;;;;25.80;16.35;;;11.20;99.90;;;;;;1881199;74;21627;-63
2021/04/20 01:24:39;;;;;;;21.70;16.05;;;11.10;99.90;;;;;;1881678;75;21097;-64
2021/04/20 01:27:07;;;;;;;22.02;15.93;;;11.10;99.90;;;;;;1838272;76;21030;-63
2021/04/20 01:29:34;;;;;;;23.60;16.23;;;11.10;99.90;;;;;;1843735;76;21081;-63
2021/04/20 01:32:02;;;;;;;23.22;16.15;;;11.00;99.90;;;;;;1832970;76;21156;-63
2021/04/20 01:34:30;;;;;;;28.35;16.82;;;11.00;99.90;;;;;;1815588;77;21227;-64
2021/04/20 01:36:57;;;;;;;26.55;17.65;;;11.00;99.90;;;;;;1814014;77;21061;-64
2021/04/20 01:39:25;;;;;;;27.15;17.80;;;10.90;99.90;;;;;;1818672;77;21070;-65
2021/04/20 01:41:53;;;;;;;25.68;18.07;;;10.90;99.90;;;;;;1819896;77;21610;-65
2021/04/20 01:44:21;;;;;;;25.65;17.87;;;10.90;99.90;;;;;;1817812;77;21109;-65
2021/04/20 01:46:48;;;;;;;27.42;17.95;;;10.90;99.90;;;;;;1814222;77;21163;-65
2021/04/20 01:49:16;;;;;;;27.52;17.05;;;10.80;99.90;;;;;;1816840;77;21140;-64
2021/04/20 01:51:44;;;;;;;24.82;16.80;;;10.90;99.90;;;;;;1814085;77;21089;-66
2021/04/20 01:54:12;;;;;;;24.70;15.15;;;10.80;99.90;;;;;;1817901;77;21062;-65
2021/04/20 01:56:40;;;;;;;19.25;14.68;;;10.80;99.90;;;;;;1814028;77;21172;-64
2021/04/20 01:59:08;;;;;;;22.13;14.75;;;10.70;99.90;;;;;;1813309;77;21128;-64
2021/04/20 02:01:36;;;;;;;19.17;14.68;;;10.60;99.90;;;;;;1821585;77;21066;-64
2021/04/20 02:04:04;;;;;;;24.87;14.20;;;10.60;99.90;;;;;;1810057;77;21113;-64
2021/04/20 02:06:32;;;;;;;22.17;14.35;;;10.60;99.90;;;;;;1814553;77;21141;-64
2021/04/20 02:08:59;;;;;;;19.70;12.85;;;10.60;99.90;;;;;;1813602;77;21128;-65
2021/04/20 02:11:27;;;;;;;18.60;12.78;;;10.60;99.90;;;;;;1816884;77;21575;-64
2021/04/20 02:13:56;;;;;;;19.80;12.88;;;10.60;99.90;;;;;;1814509;77;21183;-64
2021/04/20 02:16:24;;;;;;;17.23;12.30;;;10.60;99.90;;;;;;1815325;77;21110;-64
2021/04/20 02:18:58;;;;;;;18.12;12.37;;;10.60;99.90;;;;;;1813617;77;21194;-65
2021/04/20 02:21:26;;;;;;;16.52;11.35;;;10.50;99.90;;;;;;1817665;77;21132;-64
2021/04/20 02:23:54;;;;;;;20.85;11.38;;;10.40;99.90;;;;;;1817918;77;21515;-64
2021/04/20 02:26:28;;;;;;;18.70;10.65;;;10.40;99.90;;;;;;1816987;77;21163;-65
2021/04/20 02:29:00;;;;;;;15.78;10.78;;;10.40;99.90;;;;;;1817027;77;21658;-64
2021/04/20 02:31:27;;;;;;;14.85;10.18;;;10.30;99.90;;;;;;1820973;77;21034;-63
2021/04/20 02:33:55;;;;;;;16.00;10.70;;;10.30;99.90;;;;;;1817067;77;21118;-64
2021/04/20 02:36:24;;;;;;;18.17;10.28;;;10.30;99.90;;;;;;1812437;77;21045;-65
2021/04/20 02:38:52;;;;;;;17.65;10.48;;;10.30;99.90;;;;;;1815901;77;21105;-64
2021/04/20 02:41:20;;;;;;;18.80;10.50;;;10.20;99.90;;;;;;1818004;77;21139;-63
2021/04/20 02:43:48;;;;;;;17.25;9.83;;;10.20;99.90;;;;;;1811643;77;21831;-64
2021/04/20 02:46:17;;;;;;;18.60;10.10;;;10.20;99.90;;;;;;1815381;77;21049;-64
2021/04/20 02:48:45;;;;;;;18.98;10.20;;;10.10;99.90;;;;;;1815319;77;21542;-64
2021/04/20 02:51:13;;;;;;;17.32;9.68;;;10.10;99.90;;;;;;1815474;77;21151;-63
2021/04/20 02:53:45;;;;;;;16.97;9.30;;;10.00;99.90;;;;;;1818268;77;21184;-64
2021/04/20 02:56:15;;;;;;;16.25;9.13;;;9.90;99.90;;;;;;1816055;77;21045;-64
2021/04/20 02:58:45;;;;;;;16.73;9.45;;;9.90;99.90;;;;;;1817107;77;21109;-64
2021/04/20 03:01:18;;;;;;;15.60;9.13;;;9.90;99.90;;;;;;1820308;77;21104;-64
2021/04/20 03:03:50;;;;;;;15.20;9.13;;;9.90;99.90;;;;;;1812772;77;21634;-64
2021/04/20 03:06:18;;;;;;;13.85;8.98;;;9.90;99.90;;;;;;1812589;77;21124;-64
2021/04/20 03:08:46;;;;;;;14.45;8.48;;;9.90;99.90;;;;;;1817046;77;21160;-64
2021/04/20 03:11:22;;;;;;;14.05;8.45;;;9.80;99.90;;;;;;1814851;77;21148;-64
2021/04/20 03:13:51;;;;;;;16.02;8.43;;;9.80;99.90;;;;;;1801336;77;21090;-64
2021/04/20 03:16:18;;;;;;;12.75;8.20;;;9.70;99.90;;;;;;1818921;77;21552;-64
2021/04/20 03:18:48;;;;;;;15.93;8.38;;;9.70;99.90;;;;;;1812184;77;21156;-64
2021/04/20 03:21:18;;;;;;;10.75;8.10;;;9.70;99.90;;;;;;1814198;77;21109;-64
2021/04/20 03:23:46;;;;;;;12.43;8.50;;;9.70;99.90;;;;;;1816635;77;21101;-63
2021/04/20 03:26:26;;;;;;;12.20;7.75;;;9.70;99.90;;;;;;1815360;77;21605;-64
2021/04/20 03:28:57;;;;;;;15.35;8.63;;;9.60;99.90;;;;;;1799966;77;21124;-63
2021/04/20 03:31:26;;;;;;;16.80;7.75;;;9.60;99.90;;;;;;1816844;77;21546;-64
2021/04/20 03:34:16;;;;;;;15.72;8.15;;;9.50;99.90;;;;;;1816595;77;21098;-62
2021/04/20 03:36:47;;;;;;;16.73;7.85;;;9.40;99.90;;;;;;1820601;77;21128;-64
2021/04/20 03:39:22;;;;;;;12.75;7.62;;;9.40;99.90;;;;;;1812786;77;21129;-64
2021/04/20 03:42:02;;;;;;;12.23;7.95;;;9.30;99.90;;;;;;1814248;77;21196;-63
2021/04/20 03:44:44;;;;;;;16.17;7.87;;;9.20;99.90;;;;;;1801920;77;21124;-63
2021/04/20 03:47:18;;;;;;;14.53;8.03;;;9.10;99.90;;;;;;1816221;77;21182;-64
2021/04/20 03:49:47;;;;;;;10.08;7.12;;;9.10;99.90;;;;;;1815942;77;21203;-63
2021/04/20 03:52:21;;;;;;;19.75;7.80;;;9.20;99.90;;;;;;1815064;77;21662;-64
2021/04/20 03:54:51;;;;;;;15.98;6.85;;;9.20;99.90;;;;;;1815490;77;21327;-61
2021/04/20 03:57:20;;;;;;;14.53;8.48;;;9.20;99.90;;;;;;1819378;77;21128;-64
2021/04/20 03:59:48;;;;;;;12.73;7.90;;;9.20;99.90;;;;;;1817683;77;21113;-64
2021/04/20 04:02:18;;;;;;;13.62;7.40;;;9.20;99.90;;;;;;1815858;76;21155;-63
2021/04/20 04:04:46;;;;;;;11.00;6.78;;;9.10;99.90;;;;;;1816322;77;21054;-64
2021/04/20 04:07:17;;;;;;;15.23;7.10;;;9.10;99.90;;;;;;1815963;77;21143;-63
2021/04/20 04:09:47;;;;;;;13.78;7.33;;;9.10;99.90;;;;;;1816220;77;21404;-61
2021/04/20 04:12:17;;;;;;;12.58;7.12;;;9.10;99.90;;;;;;1813585;77;21113;-64
2021/04/20 04:14:48;;;;;;;12.73;7.55;;;9.10;99.90;;;;;;1815629;77;21101;-64
2021/04/20 04:17:17;;;;;;;13.65;7.65;;;9.10;99.90;;;;;;1825879;77;21540;-64
2021/04/20 04:19:46;;;;;;;13.83;7.60;;;9.10;99.90;;;;;;1817181;77;21163;-63
2021/04/20 04:22:16;;;;;;;13.90;7.80;;;9.00;99.90;;;;;;1815699;77;21262;-64
2021/04/20 04:24:49;;;;;;;17.60;7.40;;;9.00;99.90;;;;;;1822538;77;21114;-64
2021/04/20 04:27:19;;;;;;;11.53;7.12;;;9.00;99.90;;;;;;1814074;77;21136;-64
2021/04/20 04:29:48;;;;;;;15.30;7.55;;;9.00;99.90;;;;;;1815934;77;21110;-63
2021/04/20 04:32:20;;;;;;;12.13;7.30;;;9.00;99.90;;;;;;1819633;77;21240;-62
2021/04/20 04:34:49;;;;;;;14.78;7.95;;;8.90;99.90;;;;;;1819693;77;21144;-62
2021/04/20 04:37:18;;;;;;;12.90;7.20;;;9.00;99.90;;;;;;1822493;77;21107;-62
2021/04/20 04:39:46;;;;;;;14.30;7.45;;;9.00;99.90;;;;;;1819182;77;21148;-63
2021/04/20 04:42:14;;;;;;;15.88;8.13;;;9.00;99.90;;;;;;1816329;77;21121;-64
2021/04/20 04:44:42;;;;;;;13.83;7.65;;;9.00;99.90;;;;;;1821411;77;21097;-62
2021/04/20 04:47:11;;;;;;;15.53;8.20;;;8.90;99.90;;;;;;1818595;77;21049;-63
2021/04/20 04:49:39;;;;;;;12.90;7.62;;;8.90;99.90;;;;;;1818519;77;21116;-64
2021/04/20 04:52:09;;;;;;;14.18;7.30;;;8.90;99.90;;;;;;1825066;77;21144;-65
2021/04/20 04:54:37;;;;;;;12.93;7.47;;;8.90;99.90;;;;;;1820854;77;21223;-65
2021/04/20 04:57:06;;;;;;;13.70;7.70;;;8.80;99.90;;;;;;1818649;77;21041;-64
2021/04/20 04:59:36;;;;;;;15.63;7.20;;;8.80;99.90;;;;;;1820716;77;21595;-64
2021/04/20 05:02:04;;;;;;;12.90;8.03;;;8.80;99.90;;;;;;1822589;77;21185;-64
2021/04/20 05:04:31;;;;;;;16.35;7.75;;;8.80;99.90;;;;;;1821593;77;21098;-63
2021/04/20 05:06:59;;;;;;;13.00;7.42;;;8.80;99.90;;;;;;1825311;77;21136;-64
2021/04/20 05:09:27;;;;;;;15.03;7.70;;;8.80;99.90;;;;;;1821757;77;21109;-64
2021/04/20 05:11:55;;;;;;;11.50;7.85;;;8.80;99.90;;;;;;1823745;77;21152;-64
2021/04/20 05:14:23;;;;;;;13.43;8.05;;;8.80;99.90;;;;;;1822968;77;21141;-64
2021/04/20 05:16:55;;;;;;;14.53;7.62;;;8.80;99.90;;;;;;1819169;77;21126;-64
2021/04/20 05:19:31;;;;;;;12.75;8.10;;;8.90;99.90;;;;;;1818263;77;21123;-63
2021/04/20 05:21:59;;;;;;;18.37;7.87;;;9.00;99.90;;;;;;1814237;77;21400;-63
2021/04/20 05:24:27;;;;;;;14.58;8.48;;;9.10;99.90;;;;;;1821059;77;21101;-69
2021/04/20 05:26:56;;;;;;;16.85;7.58;;;9.20;99.90;;;;;;1820224;77;21547;-67
2021/04/20 05:29:23;;;;;;;16.30;8.08;;;9.20;99.90;;;;;;1819994;77;21257;-68
2021/04/20 05:31:52;;;;;;;18.02;8.40;;;9.30;99.90;;;;;;1818586;77;21129;-66
2021/04/20 05:34:21;;;;;;;18.82;8.80;;;9.30;99.90;;;;;;1825834;77;21261;-69
2021/04/20 05:36:49;;;;;;;15.85;8.00;;;9.30;99.90;;;;;;1817913;77;21505;-66
2021/04/20 05:39:18;;;;;;;13.72;8.15;;;9.40;99.90;;;;;;1816495;77;21113;-69
2021/04/20 05:41:46;;;;;;;19.77;8.98;;;9.50;99.90;;;;;;1811761;77;21157;-67
2021/04/20 05:44:15;;;;;;;13.98;8.08;;;9.60;99.90;;;;;;1813965;77;21097;-69
2021/04/20 05:46:47;;;;;;;16.02;8.70;;;9.70;99.90;;;;;;1814232;77;21065;-69
2021/04/20 05:49:16;;;;;;;14.10;8.50;;;9.70;99.90;;;;;;1813816;77;22539;-68
2021/04/20 05:51:44;;;;;;;16.55;9.58;;;9.80;99.90;;;;;;1813452;77;21195;-68
2021/04/20 05:54:12;;;;;;;19.52;9.13;;;9.80;99.90;;;;;;1813601;77;21191;-69
2021/04/20 05:56:40;;;;;;;18.85;8.78;;;9.90;99.90;;;;;;1818939;77;21617;-68
2021/04/20 05:59:08;;;;;;;18.00;9.48;;;9.90;99.90;;;;;;1821627;77;21113;-67
2021/04/20 06:01:44;;;;;;;15.80;9.00;;;10.00;99.90;;;;;;1822258;77;21156;-67
2021/04/20 06:04:13;;;;;;;18.25;9.83;;;10.10;99.90;;;;;;1820922;77;21125;-67
2021/04/20 06:06:42;;;;;;;17.60;9.28;;;10.10;99.90;;;;;;1818782;77;21132;-68
2021/04/20 06:09:11;;;;;;;17.60;9.60;;;10.20;99.90;;;;;;1819133;77;21444;-67
2021/04/20 06:11:42;;;;;;;18.57;10.38;;;10.30;99.90;;;;;;1820256;77;21301;-68
2021/04/20 06:14:11;;;;;;;18.92;10.40;;;10.40;99.90;;;;;;1820309;77;21192;-68
2021/04/20 06:16:39;;;;;;;16.62;9.55;;;10.50;99.90;;;;;;1820543;77;21168;-67
2021/04/20 06:19:07;;;;;;;17.90;9.13;;;10.60;99.90;;;;;;1817414;77;21211;-65
2021/04/20 06:21:36;;;;;;;17.17;9.75;;;10.70;99.90;;;;;;1827488;77;21158;-66
2021/04/20 06:24:06;;;;;;;20.02;9.45;;;10.80;99.90;;;;;;1820911;77;21146;-67
2021/04/20 06:26:39;;;;;;;18.17;10.23;;;10.80;99.90;;;;;;1824518;77;21076;-67
2021/04/20 06:29:07;;;;;;;19.23;10.65;;;10.80;99.90;;;;;;1824496;77;21060;-66
2021/04/20 06:31:36;;;;;;;20.15;10.25;;;10.90;99.90;;;;;;1821676;77;21054;-65
2021/04/20 06:34:03;;;;;;;17.37;10.05;;;10.90;99.90;;;;;;1819319;77;21174;-65
2021/04/20 06:36:31;;;;;;;14.83;9.43;;;11.00;99.90;;;;;;1820477;77;21077;-66
2021/04/20 06:38:59;;;;;;;23.10;9.93;;;11.00;99.90;;;;;;1824889;77;21487;-67
2021/04/20 06:41:30;;;;;;;17.12;9.55;;;11.10;99.90;;;;;;1823264;77;21151;-66
2021/04/20 06:44:17;;;;;;;19.52;10.03;;;11.10;99.90;;;;;;1822916;76;21049;-66
2021/04/20 06:46:47;;;;;;;18.50;9.53;;;11.20;99.90;;;;;;1825827;77;21139;-66
2021/04/20 06:49:18;;;;;;;16.65;9.60;;;11.20;99.90;;;;;;1818530;77;21104;-67
2021/04/20 06:51:49;;;;;;;20.20;10.28;;;11.30;99.90;;;;;;1817096;77;21690;-66
2021/04/20 06:54:28;;;;;;;22.77;12.18;;;11.40;99.90;;;;;;1818376;77;21162;-66
2021/04/20 06:57:30;;;;;;;22.00;12.70;;;11.50;99.70;;;;;;1821088;77;21132;-67
2021/04/20 07:00:12;;;;;;;17.62;9.85;;;11.60;99.50;;;;;;1815440;77;21139;-65
2021/04/20 07:02:52;;;;;;;;;;;11.60;99.50;;;;;;1815693;77;21693;-67
2021/04/20 07:05:36;;;;;;;22.50;9.90;;;11.60;99.60;;;;;;1815296;77;20426;-65
2021/04/20 07:08:23;;;;;;;17.85;9.28;;;11.70;99.90;;;;;;1816952;77;21059;-65
2021/04/20 07:10:54;;;;;;;18.32;9.50;;;11.80;99.50;;;;;;1820267;77;21188;-64
2021/04/20 07:13:27;;;;;;;21.93;9.68;;;11.90;99.60;;;;;;1819014;77;21168;-65
2021/04/20 07:16:00;;;;;;;18.37;10.32;;;12.00;99.90;;;;;;1817710;77;21643;-66
2021/04/20 07:19:01;;;;;;;18.85;9.90;;;12.00;99.90;;;;;;1815159;77;21199;-64
2021/04/20 07:21:54;;;;;;;26.37;9.73;;;12.10;99.60;;;;;;1812969;77;21155;-65
2021/04/20 07:24:25;;;;;;;19.15;10.00;;;12.20;99.80;;;;;;1799691;77;21237;-68
2021/04/20 07:27:16;;;;;;;21.23;11.28;;;12.20;99.70;;;;;;1814880;77;21160;-66
2021/04/20 07:29:53;;;;;;;17.80;10.50;;;12.30;99.90;;;;;;1821837;77;21609;-67
2021/04/20 07:32:58;;;;;;;21.33;10.43;;;12.30;99.90;;;;;;1778697;77;21141;-66
2021/04/20 07:35:35;;;;;;;20.60;9.65;;;12.40;99.90;;;;;;1825678;77;21063;-66
2021/04/20 07:38:18;;;;;;;18.80;9.38;;;12.50;99.90;;;;;;1816466;77;21132;-65
2021/04/20 07:40:52;;;;;;;21.85;10.00;;;12.50;99.90;;;;;;1816487;77;21128;-66
2021/04/20 07:43:52;;;;;;;20.12;10.28;;;12.60;99.90;;;;;;1821464;77;21606;-65
2021/04/20 07:46:22;;;;;;;15.60;9.30;;;12.60;99.90;;;;;;1813150;77;21194;-65
2021/04/20 07:49:04;;;;;;;19.32;8.50;;;12.70;99.90;;;;;;1813998;77;21600;-65
2021/04/20 07:51:47;;;;;;;16.70;9.08;;;12.80;99.90;;;;;;1817852;77;21112;-66
2021/04/20 07:54:45;;;;;;;16.00;8.98;;;12.90;99.90;;;;;;1818611;77;21112;-66
2021/04/20 07:57:19;;;;;;;14.13;8.90;;;13.00;99.90;;;;;;1818054;77;21149;-65
2021/04/20 08:03:01;;;;;;;20.12;9.70;;;13.10;99.90;;;;;;1831821;76;21129;-67
2021/04/20 08:05:49;;;;;;;17.77;9.23;;;13.20;99.30;;;;;;1793335;78;21206;-66
2021/04/20 08:08:40;;;;;;;19.02;9.10;;;13.20;99.20;;;;;;1812847;77;21230;-67
2021/04/20 08:11:16;;;;;;;25.27;9.33;;;13.20;99.20;;;;;;1818612;77;21160;-68
2021/04/20 08:14:03;;;;;;;15.50;8.53;;;13.30;98.80;;;;;;1779379;77;21160;-67
2021/04/20 08:17:03;;;;;;;14.55;8.55;;;13.40;98.20;;;;;;1815937;77;21598;-66
2021/04/20 08:19:36;;;;;;;19.17;8.58;;;13.50;98.60;;;;;;1820370;77;21202;-66
2021/04/20 08:22:08;;;;;;;16.60;8.70;;;13.60;99.50;;;;;;1817804;77;21578;-67
2021/04/20 08:24:39;;;;;;;;;;;13.60;99.10;;;;;;1828728;77;21161;-66
2021/04/20 08:27:10;;;;;;;13.80;8.08;;;13.70;98.90;;;;;;1820319;77;20231;-64
2021/04/20 08:29:40;;;;;;;17.62;8.23;;;13.80;97.30;;;;;;1789866;77;21172;-63
2021/04/20 08:32:13;;;;;;;15.65;8.03;;;13.90;98.00;;;;;;1820067;77;21673;-64
2021/04/20 08:34:45;;;;;;;13.00;8.08;;;14.00;97.70;;;;;;1815544;77;21563;-65
2021/04/20 08:37:25;;;;;;;12.90;7.55;;;14.10;97.20;;;;;;1819780;77;21614;-65
2021/04/20 08:40:12;;;;;;;13.45;7.30;;;14.20;96.70;;;;;;1817505;77;21184;-62
2021/04/20 08:43:00;;;;;;;13.98;7.58;;;14.20;97.20;;;;;;1828223;77;21173;-62
2021/04/20 08:45:42;;;;;;;13.65;7.55;;;14.30;96.20;;;;;;1823098;77;21421;-63
2021/04/20 08:48:32;;;;;;;13.13;7.42;;;14.40;96.80;;;;;;1822167;77;21520;-64
2021/04/20 08:51:03;;;;;;;13.03;7.25;;;14.50;95.40;;;;;;1820046;77;21154;-67
2021/04/20 08:54:07;;;;;;;14.43;6.87;;;14.60;95.60;;;;;;1816497;77;21148;-65
2021/04/20 08:56:40;;;;;;;16.97;7.65;;;14.70;95.00;;;;;;1821623;77;21121;-64
2021/04/20 08:59:30;;;;;;;12.60;7.50;;;14.70;96.30;;;;;;1814740;77;21168;-65
2021/04/20 09:02:16;;;;;;;12.98;7.08;;;14.80;95.40;;;;;;1815124;77;21649;-65
2021/04/20 09:05:06;;;;;;;15.70;7.33;;;14.90;96.00;;;;;;1821748;77;21128;-67
2021/04/20 09:07:42;;;;;;;11.30;6.35;;;15.10;95.20;;;;;;1821753;77;21190;-67
2021/04/20 09:10:15;;;;;;;11.15;6.80;;;15.20;96.30;;;;;;1817571;77;21124;-68
2021/04/20 09:12:48;;;;;;;15.18;7.12;;;15.30;95.80;;;;;;1819573;77;21114;-70
2021/04/20 09:15:19;;;;;;;12.95;7.33;;;15.40;95.70;;;;;;1825230;77;21099;-66
2021/04/20 09:17:51;;;;;;;17.17;7.17;;;15.50;96.40;;;;;;1822614;77;21193;-67
2021/04/20 09:20:27;;;;;;;16.55;7.10;;;15.60;94.20;;;;;;1824622;77;21014;-76
2021/04/20 09:23:09;;;;;;;13.15;8.50;;;15.70;93.60;;;;;;1820633;77;21109;-79
2021/04/20 09:25:55;;;;;;;12.88;7.58;;;15.80;93.50;;;;;;1824791;77;21120;-67
2021/04/20 09:28:34;;;;;;;12.13;6.70;;;15.90;93.00;;;;;;1823440;77;21127;-67
2021/04/20 09:31:11;;;;;;;10.40;6.47;;;16.00;93.20;;;;;;1824810;77;21041;-67
2021/04/20 09:33:53;;;;;;;15.38;6.45;;;16.10;92.60;;;;;;1818246;77;21054;-66
2021/04/20 09:36:22;;;;;;;9.95;6.03;;;16.20;92.30;;;;;;1824203;76;21069;-68
2021/04/20 09:38:51;;;;;;;15.83;5.83;;;16.30;91.10;;;;;;1817902;77;21199;-67
2021/04/20 09:41:30;;;;;;;16.95;6.70;;;16.30;92.10;;;;;;1820127;76;21184;-67
2021/04/20 09:44:19;;;;;;;12.82;6.67;;;16.50;90.90;;;;;;1816600;77;21240;-66
2021/04/20 09:47:10;;;;;;;12.37;5.90;;;16.40;91.20;;;;;;1818821;77;21132;-66
2021/04/20 09:49:59;;;;;;;11.88;6.17;;;16.40;91.20;;;;;;1817288;77;21210;-67
2021/04/20 09:52:29;;;;;;;13.62;6.22;;;16.50;91.70;;;;;;1795085;77;21162;-66
2021/04/20 09:55:00;;;;;;;14.03;6.10;;;16.70;91.80;;;;;;1823911;77;21206;-67
2021/04/20 09:57:31;;;;;;;12.40;5.90;;;16.80;90.60;;;;;;1822068;77;21195;-67
2021/04/20 10:00:07;;;;;;;15.75;6.22;;;16.90;90.40;;;;;;1826961;77;21108;-66
2021/04/20 10:02:49;;;;;;;10.68;6.15;;;17.00;90.00;;;;;;1817193;77;21590;-65
2021/04/20 10:05:23;;;;;;;;;;;17.00;92.10;;;;;;1827261;77;22321;-69
2021/04/20 10:08:06;;;;;;;9.68;5.30;;;17.10;88.40;;;;;;1817831;77;20108;-68
2021/04/20 10:10:51;;;;;;;;;;;17.20;89.20;;;;;;1824301;77;21120;-68
2021/04/20 10:13:56;;;;;;;13.48;5.78;;;17.30;88.60;;;;;;1819764;77;20174;-66
2021/04/20 10:16:43;;;;;;;13.08;6.05;;;17.20;88.90;;;;;;1752143;81;21161;-67
2021/04/20 10:19:32;;;;;;;9.05;5.25;;;17.20;89.00;;;;;;1716893;83;21109;-66
2021/04/20 10:22:20;;;;;;;13.55;5.17;;;17.30;88.80;;;;;;1793273;77;21226;-69
2021/04/20 10:24:54;;;;;;;12.28;4.97;;;17.50;87.40;;;;;;1816572;77;21124;-67
2021/04/20 10:27:23;;;;;;;11.68;4.95;;;17.40;83.00;;;;;;1813569;77;21120;-69
2021/04/20 10:29:54;;;;;;;11.10;4.65;;;17.50;83.20;;;;;;1815153;77;21065;-67
2021/04/20 10:32:24;;;;;;;13.03;5.50;;;17.60;87.10;;;;;;1812956;77;21167;-68
2021/04/20 10:34:54;;;;;;;12.03;4.83;;;17.80;85.30;;;;;;1810723;77;21567;-68
2021/04/20 10:37:34;;;;;;;15.70;9.08;;;17.80;87.90;;;;;;1812271;77;21087;-66
2021/04/20 10:40:04;;;;;;;10.70;5.62;;;18.00;84.30;;;;;;1811281;77;21552;-69
2021/04/20 10:42:33;;;;;;;9.90;4.60;;;18.10;86.10;;;;;;1810132;77;21098;-71
2021/04/20 10:45:02;;;;;;;15.30;5.05;;;18.20;83.00;;;;;;1810548;77;21523;-69
2021/04/20 10:47:30;;;;;;;10.70;4.53;;;18.30;83.20;;;;;;1810357;77;21105;-67
2021/04/20 10:50:00;;;;;;;9.00;4.50;;;18.40;81.30;;;;;;1812841;77;22086;-68
2021/04/20 10:52:33;;;;;;;8.00;4.40;;;18.50;79.70;;;;;;1808939;77;21598;-67
2021/04/20 10:55:03;;;;;;;10.10;4.50;;;18.60;78.00;;;;;;1814430;77;21133;-68
2021/04/20 10:57:33;;;;;;;8.33;4.62;;;18.70;82.20;;;;;;1803974;77;21183;-67
2021/04/20 11:00:02;;;;;;;8.28;4.20;;;18.80;77.80;;;;;;1808046;77;21179;-68
2021/04/20 11:02:36;;;;;;;8.88;4.35;;;18.80;73.70;;;;;;1813879;77;21121;-68
2021/04/20 11:05:06;;;;;;;9.93;4.53;;;18.90;71.90;;;;;;1812508;77;21187;-67
2021/04/20 11:07:42;;;;;;;7.40;4.37;;;19.00;77.90;;;;;;1818249;77;21137;-66
2021/04/20 11:10:12;;;;;;;9.93;5.08;;;19.00;78.10;;;;;;1810173;77;21753;-66
2021/04/20 11:12:50;;;;;;;9.80;4.55;;;19.10;75.70;;;;;;1812145;77;21153;-67
2021/04/20 11:15:23;;;;;;;11.60;4.65;;;19.20;74.70;;;;;;1806896;77;21109;-64
2021/04/20 11:17:54;;;;;;;7.92;4.42;;;19.10;75.60;;;;;;1813227;77;21406;-68
2021/04/20 11:20:45;;;;;;;6.75;3.83;;;19.10;76.80;;;;;;1812391;77;21117;-69
2021/04/20 11:23:19;;;;;;;8.48;3.55;;;19.10;71.40;;;;;;1808276;77;22250;-67
2021/04/20 11:25:53;;;;;;;10.03;4.65;;;19.00;69.20;;;;;;1815264;77;21215;-66
2021/04/20 11:28:35;;;;;;;12.70;4.37;;;19.00;66.30;;;;;;1818924;77;21090;-67
2021/04/20 11:31:06;;;;;;;8.33;3.87;;;19.10;74.10;;;;;;1824304;76;21142;-68
2021/04/20 11:33:39;;;;;;;6.78;3.77;;;19.20;73.50;;;;;;1779295;79;21325;-67
2021/04/20 11:36:21;;;;;;;6.80;3.87;;;19.40;71.70;;;;;;1791697;78;21184;-66
2021/04/20 11:38:54;;;;;;;8.68;3.87;;;19.60;76.90;;;;;;1808513;77;21172;-66
2021/04/20 11:41:28;;;;;;;8.85;3.75;;;19.80;69.90;;;;;;1803861;77;21167;-67
2021/04/20 11:43:58;;;;;;;10.23;3.50;;;19.80;65.50;;;;;;1816677;77;21090;-67
2021/04/20 11:46:28;;;;;;;9.50;3.60;;;20.00;63.50;;;;;;1806239;77;22174;-67
2021/04/20 11:48:59;;;;;;;9.48;3.80;;;20.20;65.80;;;;;;1803495;77;21126;-67
2021/04/20 11:51:34;;;;;;;8.58;3.95;;;20.30;65.90;;;;;;1808322;77;21196;-67
2021/04/20 11:54:02;;;;;;;8.85;4.25;;;20.40;65.30;;;;;;1812260;77;21093;-67
2021/04/20 11:56:32;;;;;;;5.30;3.65;;;20.60;67.20;;;;;;1798076;78;21027;-67
2021/04/20 11:59:00;;;;;;;11.65;3.90;;;21.10;65.90;;;;;;1796462;78;21051;-68
2021/04/20 12:01:28;;;;;;;6.90;3.42;;;21.50;62.00;;;;;;1796275;78;21199;-68
2021/04/20 12:04:07;;;;;;;14.15;3.70;;;21.90;60.00;;;;;;1780431;78;21176;-67
2021/04/20 12:06:40;;;;;;;17.05;9.33;;;22.40;59.30;;;;;;1777802;78;21133;-67
2021/04/20 12:09:08;;;;;;;47.58;38.23;;;22.60;62.10;;;;;;1811948;77;21172;-68
2021/04/20 12:11:36;;;;;;;9.35;6.03;;;22.70;58.60;;;;;;1814815;77;21819;-67
2021/04/20 12:14:05;;;;;;;7.58;4.05;;;22.60;57.20;;;;;;1806951;77;21154;-67
2021/04/20 12:16:35;;;;;;;9.20;3.60;;;22.50;56.10;;;;;;1812141;77;21109;-67
2021/04/20 12:19:06;;;;;;;7.83;3.47;;;22.30;55.80;;;;;;1822287;77;21217;-66
2021/04/20 12:21:38;;;;;;;6.92;3.60;;;22.00;54.40;;;;;;1808152;77;22192;-66
2021/04/20 12:24:08;;;;;;;10.30;3.58;;;21.70;53.90;;;;;;1815934;77;21708;-69
2021/04/20 12:26:37;;;;;;;7.33;3.55;;;21.80;56.70;;;;;;1806239;77;21117;-67
2021/04/20 12:29:17;;;;;;;11.90;3.67;;;21.70;57.30;;;;;;1813870;77;21190;-66
2021/04/20 12:31:44;;;;;;;7.90;3.80;;;21.80;57.10;;;;;;1812775;77;21236;-68
2021/04/20 12:34:12;;;;;;;12.63;4.20;;;21.90;57.10;;;;;;1811817;77;21114;-68
2021/04/20 12:36:51;;;;;;;6.67;3.52;;;21.90;57.80;;;;;;1824319;77;21086;-67
2021/04/20 12:39:31;;;;;;;8.43;3.27;;;21.80;57.30;;;;;;1819092;77;21116;-67
2021/04/20 12:42:01;;;;;;;9.88;3.60;;;21.80;56.80;;;;;;1782713;79;21643;-66
2021/04/20 12:44:36;;;;;;;15.80;3.98;;;21.90;57.60;;;;;;1820406;77;21134;-67
2021/04/20 12:47:04;;;;;;;9.20;3.87;;;22.00;55.80;;;;;;1811639;77;21102;-66
2021/04/20 12:49:34;;;;;;;8.60;3.58;;;22.10;55.10;;;;;;1790462;78;21113;-67
2021/04/20 12:52:11;;;;;;;9.68;4.10;;;22.30;53.60;;;;;;1782252;78;21242;-67
2021/04/20 12:54:41;;;;;;;10.88;3.45;;;22.40;53.00;;;;;;1774013;79;21173;-68
2021/04/20 12:57:12;;;;;;;8.03;3.45;;;22.50;54.30;;;;;;1779328;78;21133;-67
2021/04/20 12:59:42;;;;;;;17.05;13.03;;;22.70;54.30;;;;;;1784457;78;21175;-68
2021/04/20 13:02:11;;;;;;;15.60;9.25;;;22.60;53.10;;;;;;1829107;74;21482;-67
2021/04/20 13:04:41;;;;;;;9.55;3.37;;;22.70;53.20;;;;;;1878168;75;21611;-67
2021/04/20 13:07:09;;;;;;;11.38;3.50;;;22.80;52.10;;;;;;1853187;75;21693;-66
2021/04/20 13:09:40;;;;;;;6.45;3.25;;;23.00;51.30;;;;;;1885900;74;21186;-66